Rijeka, Croatia
Current Conditions -  °F | °C
As of 8:00 PM on Saturday 25 Oct 2014 (Local Time) from LDRI Reporting Station
Clear Clear  
Wind Chill: 55°   Ceiling: Unl
Heat Index: 55°   Visibility: 6mi
Dew Point: 39°   Wind: 1mph
Humidity: 54%   Direction: NA
Pressure: 30.15"   Gusts: NA
Location:  45.33°N, 14.44°E
Report Text: LDRI 251800Z VRB01KT CAVOK 13/04 Q1021
Loading
Personal Weather Stations






























Interactive Weather Map
Tropical Storm Tracking
New forecast layout! Learn more

10-Day Weather Forecast

Advertisements
Track Severe Weather on mobile